Terminal Aerodrome Forecast
Issued by NWS Milwaukee/Sullivan, WI

Home | Current Version | Previous Version | Text Only | Print | Product List | Glossary On
Versions: 1 2 3 4 5 6 7 8 9 10 11 12 13 14 15 16 17 18 19 20 21
000
FTUS43 KMKX 200538
TAFMKE
TAF
KMKE 200538Z 2006/2112 12004KT P6SM SCT250
     FM201200 14005KT 5SM BR BKN200
     FM201600 15010G15KT P6SM OVC150
     FM210000 16012KT 5SM -SHRA BR OVC090 WS020/17045KT
     FM210400 19010KT 3SM -SHRA BR OVC035 WS020/20045KT
     FM210700 22007KT 3SM -SHRA BR OVC008=

USA.gov is the U.S. government's official web portal to all federal, state and local government web resources and services.